Utah County RPA :: 4SPENCER

liberation: 2021-04-24  08:00     latitude: 44.350800     longitude: -112.180800 96 birds
# LOFT PRING MILES ARRIVAL SPEED ToWin
1 Riley Allred AU20-UCA-151 294.015 2021-04-24 14:48:04.217 1268.083 00:00:00
2 Riley Allred AU20-UCA-132 294.015 2021-04-24 14:48:52.198 1265.603 00:00:48
3 Riley Allred AU20-UCA-136 294.015 2021-04-24 14:48:54.638 1265.477 00:00:50
4 Riley Allred AU20-UCA-101 294.015 2021-04-24 14:48:55.664 1265.424 00:00:51
5 Craig Allred IF20-VDB-0060 294.015 2021-04-24 14:49:04.743 1264.956 00:01:01
6 Riley Allred AU20-UCA-161 294.015 2021-04-24 14:49:06.384 1264.872 00:01:02
7 Dry Creek Lofts AU20-NEBO-0334 300.068 2021-04-24 14:57:40.601 1264.421 00:01:12
8 Riley Allred AU20-UCA-148 294.015 2021-04-24 14:50:59.292 1259.080 00:02:55
9 Craig Allred IF20-VDB-31 294.015 2021-04-24 14:54:14.798 1249.176 00:06:11
10 Riley Allred AU20-UCA-102 294.015 2021-04-24 14:54:17.543 1249.038 00:06:13
11 Peery Loft AU20-UCA-0007 298.064 2021-04-24 15:02:34.707 1241.408 00:08:53
12 Dry Creek Lofts AU20-NEBO-0357 300.068 2021-04-24 15:06:49.646 1237.313 00:10:21
13 Peery Loft AU20-UCA-0004 298.064 2021-04-24 15:04:56.286 1234.514 00:11:15
14 Iron Will AU18-AA-4201 297.681 2021-04-24 15:08:49.896 1221.737 00:15:40
15 Craig Allred IF20-VDB-0055 294.015 2021-04-24 15:06:49.646 1212.357 00:18:45
16 Riley Allred AU20-UCA-107 294.015 2021-04-24 15:09:34.484 1204.603 00:21:30
17 Riley Allred AU20-UCA-157 294.015 2021-04-24 15:20:05.446 1175.819 00:32:01
18 Riley Allred AU19-UCA-959 294.015 2021-04-24 15:20:06.705 1175.763 00:32:02
19 Craig Allred AU20-NLI-2413 294.015 2021-04-24 15:20:21.552 1175.102 00:32:17
20 Riley Allred AU19-JEDD-42112 294.015 2021-04-24 15:20:35.159 1174.497 00:32:31
21 Riley Allred AU20-UCA-170 294.015 2021-04-24 15:20:35.274 1174.492 00:32:31
22 Riley Allred AU20-UCA-139 294.015 2021-04-24 15:22:39.721 1168.989 00:34:36
23 Craig Allred AU19-MTZ-1321 294.015 2021-04-24 15:31:50.686 1145.232 00:43:46
24 Peery Loft AU20-UCA-0041 298.064 2021-04-24 15:39:14.608 1142.296 00:45:33
25 Riley Allred AU20-UCA-147 294.015 2021-04-24 15:33:18.435 1141.537 00:45:14
26 Craig Allred AU20-UVI-359 294.015 2021-04-24 15:33:20.763 1141.439 00:45:17
27 Riley Allred AU19-JEDD-34848 294.015 2021-04-24 15:41:09.399 1122.107 00:53:05
28 Dry Creek Lofts AU-20-NEBO-323 300.068 2021-04-24 15:57:12.151 1106.698 01:00:44
29 Craig Allred AU20-HARM-1695 294.015 2021-04-24 15:48:23.578 1104.771 01:00:19
30 Craig Allred AU20-UVI-352 294.015 2021-04-24 15:54:38.791 1090.216 01:06:35
31 Peery Loft AU20-UCA-0042 298.064 2021-04-24 16:03:55.179 1084.048 01:10:14
32 Riley Allred AU20-UCA-116 294.015 2021-04-24 15:59:07.904 1080.010 01:11:04
33 Craig Allred AU19-JEDD-34815 294.015 2021-04-24 16:00:22.096 1077.230 01:12:18
34 Riley Allred AU19-WFA-1368 294.015 2021-04-24 16:00:23.131 1077.191 01:12:19
35 Craig Allred AU20-UVI-361 294.015 2021-04-24 16:01:30.472 1074.680 01:13:26
36 Craig Allred AU20-HARM-2617 294.015 2021-04-24 16:08:31.442 1059.246 01:20:27
37 Craig Allred AU20-UVI-303 294.015 2021-04-24 16:09:58.879 1056.096 01:21:55
38 Craig Allred AU20-NLI-2419 294.015 2021-04-24 16:12:43.554 1050.213 01:24:39
39 Riley Allred AU20-UCA-106 294.015 2021-04-24 16:14:02.250 1047.425 01:25:58
40 Riley Allred AU20-UCA-144 294.015 2021-04-24 16:22:07.888 1030.541 01:34:04
41 Craig Allred IF20-VDB-25 294.015 2021-04-24 16:22:10.980 1030.435 01:34:07
42 Riley Allred AU20-UCA-119 294.015 2021-04-24 16:26:42.160 1021.244 01:38:38
43 Craig Allred AU20-NLI-2008 294.015 2021-04-24 16:27:20.770 1019.949 01:39:17
44 Dry Creek Lofts AU20-NEBO-340 300.068 2021-04-24 16:37:56.785 1019.641 01:41:29
45 Riley Allred AU20-UCA-127 294.015 2021-04-24 16:28:17.838 1018.040 01:40:14
46 Dry Creek Lofts AU20-NEBO-301 300.068 2021-04-24 16:45:19.565 1005.317 01:48:51
47 Dry Creek Lofts AU20-NEBO-349 300.068 2021-04-24 17:01:03.937 976.072 02:04:36
48 Craig Allred AU20-NLI-2015 294.015 2021-04-24 17:07:35.774 944.979 02:19:32
49 Riley Allred AU20-UCA-153 294.015 2021-04-24 17:08:07.176 944.077 02:20:03
50 Riley Allred AU19-UCA-940 294.015 2021-04-24 17:20:48.269 922.723 02:32:44
51 Craig Allred AU20-UVI-366 294.015 2021-04-24 17:23:23.403 918.488 02:35:19
52 Riley Allred AU20-UCA-156 294.015 2021-04-24 17:27:36.552 911.661 02:39:32
53 Craig Allred AU19-JEDD-34849 294.015 2021-04-24 18:30:53.616 820.213 03:42:49
54 Craig Allred AU20-HARM-1689 294.015 2021-04-24 19:49:23.920 729.445 05:01:20
55 Riley Allred AU20-UCA-166 294.015 2021-04-24 19:55:22.647 723.348 05:07:18
56 Craig Allred AU20-NLI-2503 294.015 2021-04-24 20:23:31.200 695.969 05:35:27
57 Peery Loft AU20-UCA-0034 298.064 2021-04-25 07:52:03.596 590.008 07:55:26
58 Craig Allred AU20-NLI-2417 294.015 2021-04-25 09:14:45.457 532.470 09:23:45
59 Sherwood Loft AU19-JEDD-26356 301.939 2021-05-01 15:39:27.877 59.582 141:39:56
60 Riley Allred AU19-JEDD-34842 294.015 2021-05-01 15:42:47.497 57.997 141:54:14
Dry Creek Lofts AU20-NEBO-0315 0 0000-00-00 00:00:00.000 0.000 00:00:00
Dry Creek Lofts AU20-NEBO-0332 0 0000-00-00 00:00:00.000 0.000 00:00:00
Dry Creek Lofts AU20-NEBO-311 0 0000-00-00 00:00:00.000 0.000 00:00:00
Peery Loft AU20-UCA-0038 0 0000-00-00 00:00:00.000 0.000 00:00:00
Riley Allred AU19-JEDD-42113 0 0000-00-00 00:00:00.000 0.000 00:00:00
Sherwood Loft AU13-UCA-0368 0 0000-00-00 00:00:00.000 0.000 00:00:00
Sherwood Loft AU18-UCA-0634 0 0000-00-00 00:00:00.000 0.000 00:00:00
Sherwood Loft AU18-UCA-0681 0 0000-00-00 00:00:00.000 0.000 00:00:00
Sherwood Loft AU18-UCA-0686 0 0000-00-00 00:00:00.000 0.000 00:00:00
Sherwood Loft AU19-AA-18420 0 0000-00-00 00:00:00.000 0.000 00:00:00
Sherwood Loft AU19-AA-18442 0 0000-00-00 00:00:00.000 0.000 00:00:00
Sherwood Loft AU19-AA-30702 0 0000-00-00 00:00:00.000 0.000 00:00:00
Sherwood Loft AU19-AA-30719 0 0000-00-00 00:00:00.000 0.000 00:00:00
Sherwood Loft AU19-AA-30783 0 0000-00-00 00:00:00.000 0.000 00:00:00
Sherwood Loft AU19-AA-30785 0 0000-00-00 00:00:00.000 0.000 00:00:00
Sherwood Loft AU19-AA-30796 0 0000-00-00 00:00:00.000 0.000 00:00:00
Sherwood Loft AU19-JEDD-26375 0 0000-00-00 00:00:00.000 0.000 00:00:00
Sherwood Loft AU19-UCA-600 0 0000-00-00 00:00:00.000 0.000 00:00:00
Sherwood Loft AU20-E-71180 0 0000-00-00 00:00:00.000 0.000 00:00:00
Sherwood Loft AU20-NEBO-0218 0 0000-00-00 00:00:00.000 0.000 00:00:00
Sherwood Loft AU20-NEBO-0255 0 0000-00-00 00:00:00.000 0.000 00:00:00
Sherwood Loft AU20-NEBO-0268 0 0000-00-00 00:00:00.000 0.000 00:00:00
Sherwood Loft AU20-NEBO-0278 0 0000-00-00 00:00:00.000 0.000 00:00:00
Sherwood Loft AU20-NEBO-0279 0 0000-00-00 00:00:00.000 0.000 00:00:00
Sherwood Loft AU20-NEBO-0285 0 0000-00-00 00:00:00.000 0.000 00:00:00
Sherwood Loft AU20-NEBO-0643 0 0000-00-00 00:00:00.000 0.000 00:00:00
Sherwood Loft AU20-NEBO-0648 0 0000-00-00 00:00:00.000 0.000 00:00:00
Sherwood Loft AU20-UCA-0409 0 0000-00-00 00:00:00.000 0.000 00:00:00
Sherwood Loft AU20-UCA-0413 0 0000-00-00 00:00:00.000 0.000 00:00:00
Sherwood Loft AU20-UCA-0475 0 0000-00-00 00:00:00.000 0.000 00:00:00
Sherwood Loft IF20-FOYS-2244 0 0000-00-00 00:00:00.000 0.000 00:00:00
Sherwood Loft IF20-FOYS-2254 0 0000-00-00 00:00:00.000 0.000 00:00:00
Sherwood Loft IF20-FOYS-2263 0 0000-00-00 00:00:00.000 0.000 00:00:00
Sherwood Loft IF20-FOYS-2269 0 0000-00-00 00:00:00.000 0.000 00:00:00
Sherwood Loft IF20-FOYS-2270 0 0000-00-00 00:00:00.000 0.000 00:00:00
Sherwood Loft IF20-FOYS-2275 0 0000-00-00 00:00:00.000 0.000 00:00:00